Latest Weather Observations for Mudgee

IDN60801

Issued at 6:32 am EST Friday 28 April 2017 (issued every 30 minutes, with the page automatically refreshed every 10 minutes)

About weather observations | Map of weather stations | Latest weather observations for NSW | Other Formats
Station Details ID: 062101 Name: MUDGEE AIRPORT AWS Lat: -32.56 Lon: 149.61 Height: 471.0 m
Data from the previous 72 hours. | See also: Recent months at Mudgee
Date/Time
EST
Temp
°C
App
Temp
°C
Dew
Point
°C
Rel
Hum
%
Delta-T
°C
Wind Press
QNH
hPa
Press
MSL
hPa
Rain since
9am
mm
Dir  Spd
km/h
Gust
km/h
Spd
kts
Gust
kts
28/06:30am 1.5 -1.6 1.2 98 0.1 NNE 7 9 4 5 1022.0 1021.1 0.0
28/06:00am 2.2 -0.2 1.9 98 0.1 NE 4 9 2 5 1021.8 1020.9 0.0
28/05:30am 2.1 0.4 1.8 98 0.1 CALM 0 4 0 2 1021.4 1020.6 0.0
28/05:00am 2.2 -1.2 1.9 98 0.1 NNE 9 11 5 6 1021.1 1020.2 0.0
28/04:30am 2.0 -0.5 1.6 97 0.2 NNE 4 7 2 4 1020.9 1020.0 0.0
28/04:00am 3.2 1.7 2.8 97 0.2 CALM 0 0 0 0 1020.6 1019.7 0.0
28/03:30am 3.4 0.8 3.1 98 0.1 NNE 6 7 3 4 1020.5 1019.6 0.0
28/03:00am 2.3 -0.5 1.9 97 0.2 NNW 6 7 3 4 1020.4 1019.5 0.0
28/02:30am 2.9 0.0 2.5 97 0.2 NNE 7 11 4 6 1020.3 1019.4 0.0
28/02:00am 3.2 1.7 2.8 97 0.2 CALM 0 0 0 0 1020.6 1019.7 0.0
28/01:30am 3.9 2.5 3.5 97 0.2 CALM 0 0 0 0 1020.6 1019.7 0.0
28/01:00am 3.9 2.0 2.9 93 0.4 S 2 6 1 3 1020.6 1019.7 0.0
28/12:30am 6.0 3.5 3.7 85 1.0 SSE 6 9 3 5 1020.6 1019.7 0.0
28/12:00am 6.2 3.8 4.2 87 0.9 SW 6 7 3 4 1020.5 1019.6 0.0
 
Date/Time
EST
Temp
°C
App
Temp
°C
Dew
Point
°C
Rel
Hum
%
Delta-T
°C
Wind Press
QNH
hPa
Press
MSL
hPa
Rain since
9am
mm
Dir  Spd
km/h
Gust
km/h
Spd
kts
Gust
kts
27/11:30pm 5.7 3.2 3.7 87 0.9 SW 6 7 3 4 1020.6 1019.7 0.0
27/11:00pm 6.8 4.1 3.8 81 1.3 S 7 9 4 5 1020.4 1019.5 0.0
27/10:30pm 6.5 3.5 4.0 84 1.1 SW 9 11 5 6 1020.5 1019.6 0.0
27/10:00pm 6.6 5.2 3.8 82 1.2 CALM 0 2 0 1 1020.3 1019.4 0.0
27/09:30pm 8.5 6.1 4.3 75 1.9 SSW 6 7 3 4 1020.0 1019.1 0.0
27/09:00pm 8.8 5.8 4.2 73 2.1 SSW 9 11 5 6 1020.1 1019.2 0.0
27/08:30pm 10.1 7.2 4.5 68 2.6 S 9 15 5 8 1020.0 1019.1 0.0
27/08:00pm 10.5 8.0 4.6 67 2.7 S 7 11 4 6 1020.1 1019.2 0.0
27/07:30pm 10.0 8.1 4.8 70 2.4 S 4 9 2 5 1019.8 1018.9 0.0
27/07:00pm 9.3 6.7 4.3 71 2.3 SSW 7 11 4 6 1019.7 1018.8 0.0
27/06:30pm 9.6 6.7 4.6 71 2.3 SW 9 13 5 7 1019.1 1018.2 0.0
27/06:00pm 9.2 5.9 4.4 72 2.2 W 11 13 6 7 1018.3 1017.4 0.0
27/05:30pm 10.2 6.1 4.4 67 2.7 WNW 15 17 8 9 1017.8 1016.9 0.0
27/05:00pm 12.0 7.5 4.2 59 3.6 W 17 20 9 11 1017.6 1016.7 0.0
27/04:30pm 13.1 7.8 2.9 50 4.6 WSW 20 24 11 13 1016.9 1016.0 0.0
27/04:00pm 13.9 9.0 4.2 52 4.6 WSW 19 26 10 14 1016.8 1015.9 0.0
27/03:30pm 14.3 9.2 4.0 50 4.8 W 20 30 11 16 1016.5 1015.6 0.0
27/03:00pm 14.3 8.7 3.5 48 5.0 W 22 32 12 17 1016.3 1015.4 0.0
27/02:30pm 13.1 7.5 3.5 52 4.4 WSW 22 30 12 16 1016.2 1015.3 0.0
27/02:00pm 14.2 9.2 4.5 52 4.6 W 20 30 11 16 1015.9 1015.0 0.0
27/01:30pm 14.0 10.0 4.9 54 4.3 WSW 15 22 8 12 1016.0 1015.1 0.0
27/01:00pm 13.4 9.6 3.8 52 4.5 W 13 19 7 10 1015.9 1015.0 0.0
27/12:30pm 13.5 9.4 4.4 54 4.3 WSW 15 22 8 12 1016.2 1015.3 0.0
27/12:00pm 13.5 8.5 3.6 51 4.6 WSW 19 26 10 14 1016.4 1015.5 0.0
27/11:30am 13.2 9.1 4.4 55 4.1 SW 15 24 8 13 1016.7 1015.8 0.0
27/11:00am 11.9 8.1 3.9 58 3.7 SSW 13 17 7 9 1016.9 1016.0 0.0
27/10:30am 11.8 8.5 4.8 62 3.3 SSW 11 17 6 9 1017.2 1016.2 0.0
27/10:00am 10.4 6.6 3.9 64 2.9 SSW 13 17 7 9 1017.3 1016.3 0.0
27/09:30am 10.5 6.1 4.9 68 2.6 SSW 17 24 9 13 1017.2 1016.2 0.0
27/09:00am 9.6 6.0 4.8 72 2.2 SSW 13 20 7 11 1016.9 1016.0 4.6
27/08:46am 9.2 4.5 5.0 75 1.9 SW 19 24 10 13 1016.9 1016.0 4.6
27/08:30am 9.2 4.4 5.6 78 1.7 SW 20 24 11 13 1016.8 1015.9 4.6
27/08:00am 8.0 4.5 5.5 84 1.2 WSW 13 19 7 10 1016.8 1015.9 4.6
27/07:30am 7.9 3.7 5.9 87 0.9 WSW 17 20 9 11 1016.5 1015.6 4.6
27/07:00am 6.9 2.4 6.0 94 0.4 W 19 24 10 13 1016.2 1015.3 4.6
27/06:30am 6.3 3.2 5.4 94 0.4 W 11 15 6 8 1015.9 1015.0 4.6
27/06:00am 6.2 1.9 5.2 93 0.5 W 17 20 9 11 1015.6 1014.6 4.6
27/05:30am 6.6 2.3 5.4 92 0.5 W 17 20 9 11 1015.1 1014.1 4.6
27/05:00am 6.9 3.0 5.4 90 0.7 W 15 19 8 10 1014.4 1013.5 4.6
27/04:30am 7.0 2.8 5.5 90 0.7 WNW 17 20 9 11 1014.2 1013.3 4.6
27/04:11am 7.3 3.8 5.3 87 0.9 W 13 15 7 8 1013.9 1013.0 4.6
27/04:00am 7.5 4.7 5.1 85 1.1 WSW 9 13 5 7 1013.8 1012.8 4.6
27/03:30am 8.5 5.8 5.8 83 1.3 WSW 9 15 5 8 1013.5 1012.5 4.6
27/03:00am 8.6 5.6 6.1 84 1.2 SW 11 15 6 8 1013.5 1012.5 4.6
27/02:42am 8.1 5.0 5.6 84 1.2 WSW 11 15 6 8 1013.6 1012.6 4.6
27/02:30am 8.5 5.0 5.6 82 1.3 SW 13 15 7 8 1013.7 1012.7 4.6
27/02:00am 8.7 5.4 6.3 85 1.1 SW 13 15 7 8 1014.0 1013.1 4.6
27/01:30am 9.4 5.0 6.5 82 1.4 WSW 19 24 10 13 1014.0 1013.1 4.6
27/01:05am 9.7 5.2 6.8 82 1.4 WSW 20 26 11 14 1014.1 1013.2 4.6
27/01:00am 9.6 5.3 7.0 84 1.3 WSW 19 28 10 15 1014.2 1013.3 4.6
27/12:30am 9.9 6.0 7.3 84 1.3 WSW 17 24 9 13 1014.2 1013.3 4.6
27/12:00am 9.8 6.5 8.1 89 0.8 W 15 24 8 13 1014.2 1013.3 4.6
 
Date/Time
EST
Temp
°C
App
Temp
°C
Dew
Point
°C
Rel
Hum
%
Delta-T
°C
Wind Press
QNH
hPa
Press
MSL
hPa
Rain since
9am
mm
Dir  Spd
km/h
Gust
km/h
Spd
kts
Gust
kts
26/11:30pm 9.2 6.1 8.7 97 0.3 WNW 15 19 8 10 1014.1 1013.2 4.6
26/11:00pm 9.6 6.7 8.0 90 0.8 WNW 13 17 7 9 1014.1 1013.2 4.6
26/10:30pm 9.8 6.8 7.6 86 1.1 W 13 17 7 9 1013.9 1013.0 4.6
26/10:00pm 9.5 6.8 7.4 87 1.0 WNW 11 17 6 9 1014.0 1013.1 4.6
26/09:30pm 9.5 6.4 7.3 86 1.1 WNW 13 19 7 10 1014.2 1013.3 4.6
26/09:00pm 9.4 6.3 7.2 86 1.1 W 13 20 7 11 1014.0 1013.1 4.6
26/08:44pm 9.1 6.3 6.9 86 1.1 WNW 11 20 6 11 1014.0 1013.1 4.6
26/08:30pm 8.9 5.7 7.0 88 0.9 W 13 19 7 10 1013.6 1012.6 4.6
26/08:00pm 8.2 4.3 5.5 83 1.2 W 15 20 8 11 1013.2 1012.2 4.6
26/07:30pm 9.1 3.9 5.5 78 1.7 WSW 22 32 12 17 1013.1 1012.1 4.6
26/07:00pm 9.3 3.7 5.5 77 1.8 WSW 24 37 13 20 1012.7 1011.7 4.6
26/06:30pm 9.0 4.1 5.0 76 1.8 W 20 32 11 17 1011.9 1010.9 4.6
26/06:00pm 9.0 5.5 7.3 89 0.8 WNW 15 22 8 12 1011.3 1010.3 4.6
26/05:30pm 8.9 6.0 6.3 84 1.2 NW 11 15 6 8 1010.9 1009.9 4.6
26/05:00pm 9.6 5.1 6.1 79 1.7 W 19 24 10 13 1010.4 1009.4 4.6
26/04:30pm 10.2 5.2 6.5 78 1.8 W 22 30 12 16 1010.1 1009.1 4.6
26/04:00pm 9.7 6.3 7.8 88 0.9 W 15 20 8 11 1009.9 1008.9 4.6
26/03:30pm 9.3 8.0 7.6 89 0.8 SW 4 7 2 4 1009.2 1008.2 4.6
26/03:00pm 9.4 5.6 7.7 89 0.8 SW 17 24 9 13 1009.8 1008.8 4.4
26/02:30pm 9.4 3.1 7.5 88 0.9 SW 30 41 16 22 1009.5 1008.5 3.4
26/02:21pm 9.5 2.2 7.3 86 1.1 SW 35 56 19 30 1009.1 1008.1 3.2
26/02:03pm 10.5 1.2 7.7 83 1.4 WSW 46 70 25 38 1009.0 1008.0 2.4
26/02:02pm 10.8 2.3 8.6 86 1.1 WSW 43 69 23 37 1008.8 1007.8 2.4
26/02:00pm 11.3 4.2 9.6 89 0.9 WSW 37 63 20 34 1008.0 1007.0 2.2
26/01:57pm 11.8 6.5 9.7 87 1.1 WSW 28 59 15 32 1007.7 1006.7 1.8
26/01:35pm 12.0 2.0 9.2 83 1.4 W 52 89 28 48 1007.3 1006.3 1.4
26/01:30pm 12.4 3.2 8.1 75 2.2 W 46 89 25 48 1007.1 1006.1 1.0
26/01:28pm 13.1 4.4 7.5 69 2.8 W 43 89 23 48 1006.7 1005.7 1.0
26/01:27pm 14.0 6.0 7.5 65 3.3 WNW 39 89 21 48 1006.7 1005.7 1.0
26/01:26pm 16.1 9.0 8.1 59 4.1 WNW 35 57 19 31 1006.4 1005.3 1.0
26/01:25pm 16.2 9.0 7.7 57 4.4 WNW 35 50 19 27 1006.3 1005.2 1.0
26/01:00pm 17.1 13.0 11.4 69 3.2 NNW 24 32 13 17 1006.1 1005.0 1.0
26/12:30pm 15.6 11.0 11.2 75 2.4 NW 26 37 14 20 1006.9 1005.9 1.0
26/12:00pm 14.3 8.1 9.3 72 2.6 W 32 46 17 25 1007.6 1006.6 0.0
26/11:54am 15.7 9.7 7.0 56 4.4 W 28 46 15 25 1007.7 1006.7 0.0
26/11:30am 17.5 13.5 10.4 63 3.9 WNW 22 28 12 15 1008.0 1007.0 0.0
26/11:00am 17.9 12.4 9.0 56 4.8 WNW 28 39 15 21 1008.8 1007.8 0.0
26/10:30am 17.3 11.9 9.5 60 4.2 WNW 28 39 15 21 1009.4 1008.4 0.0
26/10:00am 16.4 11.8 9.8 65 3.5 WNW 24 35 13 19 1009.8 1008.8 0.0
26/09:30am 16.7 13.5 11.8 73 2.7 WNW 20 26 11 14 1010.0 1009.0 0.0
26/09:00am 15.4 12.4 12.0 80 1.9 W 19 26 10 14 1010.5 1009.5 6.8
26/08:42am 15.8 13.9 13.1 84 1.5 WNW 15 22 8 12 1010.4 1009.4 6.8
26/08:31am 15.6 14.2 14.5 93 0.6 NW 15 20 8 11 1010.4 1009.4 6.8
26/08:30am 15.5 14.2 14.7 95 0.5 NW 15 20 8 11 1010.5 1009.5 6.8
26/08:00am 14.4 14.0 14.1 98 0.2 NW 9 11 5 6 1010.1 1009.1 6.8
26/07:30am 13.8 12.9 13.6 99 0.1 N 11 13 6 7 1010.2 1009.3 6.8
26/07:00am 12.8 11.5 12.6 99 0.1 N 11 11 6 6 1009.8 1008.8 6.8
26/06:30am 13.1 11.9 12.9 99 0.1 N 11 13 6 7 1009.9 1008.9 6.8
26/06:00am 13.8 12.9 13.6 99 0.1 N 11 13 6 7 1009.7 1008.7 6.6
26/05:30am 14.7 14.1 14.5 99 0.1 NNW 11 13 6 7 1009.8 1008.8 6.6
26/05:00am 14.7 14.1 14.5 99 0.1 N 11 13 6 7 1009.8 1008.8 6.6
26/04:30am 14.7 14.4 14.5 99 0.1 NNW 9 11 5 6 1009.7 1008.7 6.6
26/04:00am 14.7 14.4 14.5 99 0.1 N 9 11 5 6 1009.8 1008.8 6.6
26/03:30am 14.7 14.4 14.5 99 0.1 N 9 11 5 6 1010.1 1009.1 6.6
26/03:00am 14.7 14.8 14.5 99 0.1 N 7 7 4 4 1010.4 1009.4 6.6
26/02:30am 15.3 15.3 15.1 99 0.1 N 9 11 5 6 1010.7 1009.7 6.6
26/02:00am 15.4 15.7 15.1 98 0.2 NW 7 11 4 6 1011.1 1010.1 6.6
26/01:55am 15.5 15.5 15.2 98 0.2 NNW 9 13 5 7 1011.1 1010.1 6.6
26/01:30am 15.7 15.8 15.4 98 0.2 WNW 9 13 5 7 1011.2 1010.2 6.6
26/01:21am 15.7 15.8 15.4 98 0.2 WNW 9 13 5 7 1011.1 1010.1 6.6
26/01:01am 16.0 16.6 15.7 98 0.2 NW 7 9 4 5 1011.4 1010.4 5.4
26/01:00am 16.0 16.6 15.7 98 0.2 NW 7 11 4 6 1011.4 1010.4 4.2
26/12:30am 16.0 15.8 15.7 98 0.2 NW 11 15 6 8 1011.4 1010.4 3.0
26/12:00am 16.1 15.2 15.8 98 0.2 NNW 15 20 8 11 1011.6 1010.6 3.0
 
Date/Time
EST
Temp
°C
App
Temp
°C
Dew
Point
°C
Rel
Hum
%
Delta-T
°C
Wind Press
QNH
hPa
Press
MSL
hPa
Rain since
9am
mm
Dir  Spd
km/h
Gust
km/h
Spd
kts
Gust
kts
25/11:30pm 16.1 14.8 15.8 98 0.2 NNW 17 22 9 12 1011.8 1010.8 3.0
25/11:00pm 16.2 15.3 15.9 98 0.2 NNW 15 20 8 11 1011.8 1010.8 3.0
25/10:30pm 16.1 15.9 15.8 98 0.2 N 11 15 6 8 1011.7 1010.7 3.0
25/10:00pm 16.1 16.7 15.8 98 0.2 NNW 7 11 4 6 1012.1 1011.2 3.0
25/09:55pm 16.0 16.6 15.7 98 0.2 N 7 15 4 8 1012.1 1011.2 3.0
25/09:51pm 16.1 16.3 15.8 98 0.2 N 9 15 5 8 1012.2 1011.3 3.0
25/09:30pm 16.1 15.6 15.8 98 0.2 N 13 17 7 9 1012.3 1011.4 3.0
25/09:00pm 16.0 15.8 15.7 98 0.2 N 11 15 6 8 1012.4 1011.5 3.0
25/08:49pm 16.0 15.8 15.7 98 0.2 N 11 15 6 8 1012.5 1011.6 3.0
25/08:30pm 16.0 15.4 15.7 98 0.2 N 13 17 7 9 1012.4 1011.5 3.0
25/08:19pm 16.0 15.8 15.7 98 0.2 N 11 13 6 7 1012.5 1011.6 3.0
25/08:00pm 16.0 15.8 15.7 98 0.2 NNE 11 13 6 7 1012.4 1011.5 3.0
25/07:30pm 16.1 18.0 15.8 98 0.2 CALM 0 0 0 0 1012.5 1011.6 3.0
25/07:22pm 15.9 17.0 15.6 98 0.2 N 4 7 2 4 1012.3 1011.4 3.0
25/07:00pm 15.8 16.3 15.5 98 0.2 N 7 11 4 6 1012.1 1011.2 3.0
25/06:30pm 15.9 15.7 15.6 98 0.2 N 11 13 6 7 1012.1 1011.2 3.0
25/06:00pm 16.4 16.0 16.1 98 0.2 N 13 17 7 9 1011.9 1010.9 3.0
25/05:36pm 16.8 15.6 16.0 95 0.5 NNW 17 22 9 12 1011.9 1010.9 3.0
25/05:30pm 16.8 15.6 16.2 96 0.4 NNW 17 28 9 15 1012.0 1011.1 3.0
25/05:00pm 17.1 16.4 16.5 96 0.4 N 15 17 8 9 1012.0 1011.1 2.8
25/04:39pm 17.3 16.5 16.0 92 0.8 NNW 15 19 8 10 1012.1 1011.2 2.8
25/04:30pm 17.3 16.3 15.6 90 1.0 NNW 15 20 8 11 1011.9 1010.9 2.8
25/04:00pm 17.7 16.4 15.7 88 1.2 NNW 17 22 9 12 1012.4 1011.5 2.8
25/03:44pm 17.7 17.4 16.4 92 0.8 NNW 13 19 7 10 1012.3 1011.4 2.8
25/03:30pm 17.6 17.4 16.8 95 0.5 NW 13 15 7 8 1012.5 1011.6 2.8
25/03:16pm 17.5 17.4 16.9 96 0.4 NNW 13 17 7 9 1012.5 1011.6 2.8
25/03:00pm 17.7 18.0 16.9 95 0.5 NNW 11 15 6 8 1012.7 1011.7 2.8
25/02:57pm 17.6 17.9 17.0 96 0.4 NNW 11 15 6 8 1012.7 1011.7 2.8
25/02:35pm 17.5 17.3 16.7 95 0.5 NNW 13 19 7 10 1013.0 1012.0 2.8
25/02:32pm 17.6 17.5 17.0 96 0.4 NNW 13 19 7 10 1013.1 1012.1 2.8
25/02:30pm 17.6 17.4 16.8 95 0.5 NNW 13 17 7 9 1013.1 1012.1 2.8
25/02:21pm 17.6 17.4 16.6 94 0.6 NNW 13 20 7 11 1013.1 1012.1 2.8
25/02:00pm 17.6 17.5 15.9 90 1.0 NNW 11 15 6 8 1013.2 1012.2 2.6
25/01:30pm 18.1 18.8 17.1 94 0.6 NNW 9 13 5 7 1013.5 1012.5 2.4
25/01:00pm 17.5 17.3 16.7 95 0.5 WNW 13 20 7 11 1013.8 1012.8 2.0
25/12:59pm 17.3 16.9 16.3 94 0.6 WNW 13 20 7 11 1013.8 1012.8 2.0
25/12:44pm 17.0 14.0 15.9 93 0.7 WNW 26 35 14 19 1014.0 1013.1 2.0
25/12:41pm 17.2 13.8 15.7 91 0.9 WNW 28 37 15 20 1014.2 1013.3 1.6
25/12:30pm 17.8 13.5 15.4 86 1.4 W 32 46 17 25 1014.0 1013.1 1.0
25/12:27pm 17.9 13.4 15.0 83 1.7 WNW 32 46 17 25 1014.1 1013.2 0.8
25/12:20pm 20.6 16.4 13.6 64 4.1 NW 28 46 15 25 1013.8 1012.8 0.0
25/12:00pm 22.8 18.3 12.7 53 5.9 NNW 28 43 15 23 1013.5 1012.5 0.0
25/11:30am 23.3 17.9 12.9 52 6.1 NNW 33 43 18 23 1014.1 1013.2 0.0
25/11:00am 22.5 18.1 13.0 55 5.6 NNW 28 37 15 20 1014.7 1013.8 0.0
25/10:30am 22.2 18.1 12.7 55 5.5 NNW 26 35 14 19 1015.4 1014.4 0.0
25/10:00am 20.8 17.5 12.8 60 4.6 N 22 30 12 16 1015.9 1015.0 0.0
25/09:30am 20.1 18.3 13.3 65 4.0 N 15 20 8 11 1016.4 1015.5 0.0
25/09:00am 17.9 18.3 13.8 77 2.4 WNW 4 7 2 4 1016.6 1015.7 0.0
25/08:30am 15.7 16.1 14.7 94 0.6 S 6 7 3 4 1016.7 1015.8 0.0
25/08:00am 14.5 14.4 13.9 96 0.3 SSE 7 7 4 4 1016.8 1015.9 0.0
25/07:30am 14.2 15.1 13.9 98 0.2 SSE 2 6 1 3 1016.8 1015.9 0.0
25/07:00am 13.8 14.5 13.5 98 0.2 SSE 2 7 1 4 1016.8 1015.9 0.0

Other Formats:

Comma delimited format used in spreadsheet applications
http://www.bom.gov.au/fwo/IDN60801/IDN60801.94727.axf

JavaScript Object Notation format (JSON) in row-major order
http://www.bom.gov.au/fwo/IDN60801/IDN60801.94727.json